sensor_id;sensor_type;location;lat;lon;timestamp;pressure;altitude;pressure_sealevel;temperature
74536;BMP180;63013;51.104;-115.370;2022-11-24T00:01:28;87626.20;;;22.80
74536;BMP180;63013;51.104;-115.370;2022-11-24T00:04:01;87630.00;;;22.80
74536;BMP180;63013;51.104;-115.370;2022-11-24T00:06:30;87623.40;;;22.74
74536;BMP180;63013;51.104;-115.370;2022-11-24T00:08:58;87622.20;;;22.70
74536;BMP180;63013;51.104;-115.370;2022-11-24T00:11:28;87631.20;;;22.70
74536;BMP180;63013;51.104;-115.370;2022-11-24T00:13:57;87622.20;;;22.70
74536;BMP180;63013;51.104;-115.370;2022-11-24T00:16:33;87625.20;;;22.70
74536;BMP180;63013;51.104;-115.370;2022-11-24T00:19:04;87628.80;;;22.70
74536;BMP180;63013;51.104;-115.370;2022-11-24T00:21:32;87615.80;;;22.70
74536;BMP180;63013;51.104;-115.370;2022-11-24T00:23:59;87614.00;;;22.70
74536;BMP180;63013;51.104;-115.370;2022-11-24T00:26:32;87605.40;;;22.70
74536;BMP180;63013;51.104;-115.370;2022-11-24T00:29:03;87608.80;;;22.70
74536;BMP180;63013;51.104;-115.370;2022-11-24T00:31:36;87607.80;;;22.70
74536;BMP180;63013;51.104;-115.370;2022-11-24T00:34:13;87621.80;;;22.70
74536;BMP180;63013;51.104;-115.370;2022-11-24T00:36:40;87624.20;;;22.70
74536;BMP180;63013;51.104;-115.370;2022-11-24T00:39:12;87612.60;;;22.70
74536;BMP180;63013;51.104;-115.370;2022-11-24T00:41:40;87610.40;;;22.70
74536;BMP180;63013;51.104;-115.370;2022-11-24T00:44:08;87617.60;;;22.78
74536;BMP180;63013;51.104;-115.370;2022-11-24T00:46:35;87608.00;;;22.80
74536;BMP180;63013;51.104;-115.370;2022-11-24T00:49:02;87617.60;;;22.80
74536;BMP180;63013;51.104;-115.370;2022-11-24T00:51:31;87612.80;;;22.80
74536;BMP180;63013;51.104;-115.370;2022-11-24T00:53:59;87608.60;;;22.80
74536;BMP180;63013;51.104;-115.370;2022-11-24T00:56:28;87612.00;;;22.80
74536;BMP180;63013;51.104;-115.370;2022-11-24T00:58:56;87602.80;;;22.80
74536;BMP180;63013;51.104;-115.370;2022-11-24T01:01:28;87605.00;;;22.80
74536;BMP180;63013;51.104;-115.370;2022-11-24T01:04:00;87590.00;;;22.80
74536;BMP180;63013;51.104;-115.370;2022-11-24T01:06:29;87597.20;;;22.80
74536;BMP180;63013;51.104;-115.370;2022-11-24T01:08:57;87584.40;;;22.80
74536;BMP180;63013;51.104;-115.370;2022-11-24T01:11:33;87579.80;;;22.78
74536;BMP180;63013;51.104;-115.370;2022-11-24T01:14:23;87587.20;;;22.80
74536;BMP180;63013;51.104;-115.370;2022-11-24T01:16:51;87577.20;;;22.72
74536;BMP180;63013;51.104;-115.370;2022-11-24T01:19:18;87573.60;;;22.74
74536;BMP180;63013;51.104;-115.370;2022-11-24T01:21:46;87571.80;;;22.70
74536;BMP180;63013;51.104;-115.370;2022-11-24T01:24:14;87570.60;;;22.70
74536;BMP180;63013;51.104;-115.370;2022-11-24T01:26:41;87588.80;;;22.70
74536;BMP180;63013;51.104;-115.370;2022-11-24T01:29:10;87590.60;;;22.70
74536;BMP180;63013;51.104;-115.370;2022-11-24T01:31:38;87586.40;;;22.70
74536;BMP180;63013;51.104;-115.370;2022-11-24T01:34:05;87586.60;;;22.70
74536;BMP180;63013;51.104;-115.370;2022-11-24T01:36:32;87583.60;;;22.70
74536;BMP180;63013;51.104;-115.370;2022-11-24T01:38:59;87574.40;;;22.70
74536;BMP180;63013;51.104;-115.370;2022-11-24T01:41:26;87567.80;;;22.70
74536;BMP180;63013;51.104;-115.370;2022-11-24T01:43:54;87570.20;;;22.70
74536;BMP180;63013;51.104;-115.370;2022-11-24T01:49:12;87583.40;;;22.70
74536;BMP180;63013;51.104;-115.370;2022-11-24T01:51:49;87579.80;;;22.70
74536;BMP180;63013;51.104;-115.370;2022-11-24T01:55:08;87577.00;;;22.68
74536;BMP180;63013;51.104;-115.370;2022-11-24T01:57:23;87573.00;;;22.66
74536;BMP180;63013;51.104;-115.370;2022-11-24T02:00:01;87563.00;;;22.70
74536;BMP180;63013;51.104;-115.370;2022-11-24T02:02:30;87568.80;;;22.70
74536;BMP180;63013;51.104;-115.370;2022-11-24T02:05:02;87565.60;;;22.70
74536;BMP180;63013;51.104;-115.370;2022-11-24T02:07:31;87558.00;;;22.70
74536;BMP180;63013;51.104;-115.370;2022-11-24T02:10:12;87561.80;;;22.74
74536;BMP180;63013;51.104;-115.370;2022-11-24T02:12:45;87560.20;;;22.72
74536;BMP180;63013;51.104;-115.370;2022-11-24T02:15:17;87565.80;;;22.70
74536;BMP180;63013;51.104;-115.370;2022-11-24T02:17:44;87569.60;;;22.70
74536;BMP180;63013;51.104;-115.370;2022-11-24T02:20:13;87556.80;;;22.70
74536;BMP180;63013;51.104;-115.370;2022-11-24T02:25:40;87567.40;;;22.72
74536;BMP180;63013;51.104;-115.370;2022-11-24T02:28:16;87576.60;;;22.80
74536;BMP180;63013;51.104;-115.370;2022-11-24T02:30:44;87573.00;;;22.80
74536;BMP180;63013;51.104;-115.370;2022-11-24T02:33:12;87575.40;;;22.80
74536;BMP180;63013;51.104;-115.370;2022-11-24T02:35:39;87566.80;;;22.80
74536;BMP180;63013;51.104;-115.370;2022-11-24T02:38:10;87567.80;;;22.80
74536;BMP180;63013;51.104;-115.370;2022-11-24T02:40:43;87580.60;;;22.80
74536;BMP180;63013;51.104;-115.370;2022-11-24T02:43:18;87589.80;;;22.80
74536;BMP180;63013;51.104;-115.370;2022-11-24T02:45:47;87608.20;;;22.80
74536;BMP180;63013;51.104;-115.370;2022-11-24T02:48:16;87590.80;;;22.80
74536;BMP180;63013;51.104;-115.370;2022-11-24T02:50:43;87619.80;;;22.80
74536;BMP180;63013;51.104;-115.370;2022-11-24T02:53:10;87620.80;;;22.80
74536;BMP180;63013;51.104;-115.370;2022-11-24T02:55:37;87609.60;;;22.80
74536;BMP180;63013;51.104;-115.370;2022-11-24T02:58:04;87610.20;;;22.78
74536;BMP180;63013;51.104;-115.370;2022-11-24T03:00:31;87596.20;;;22.72
74536;BMP180;63013;51.104;-115.370;2022-11-24T03:02:58;87591.20;;;22.70
74536;BMP180;63013;51.104;-115.370;2022-11-24T03:05:25;87583.40;;;22.70
74536;BMP180;63013;51.104;-115.370;2022-11-24T03:07:52;87578.40;;;22.70
74536;BMP180;63013;51.104;-115.370;2022-11-24T03:10:19;87563.40;;;22.70
74536;BMP180;63013;51.104;-115.370;2022-11-24T03:12:46;87572.60;;;22.70
74536;BMP180;63013;51.104;-115.370;2022-11-24T03:15:13;87572.20;;;22.70
74536;BMP180;63013;51.104;-115.370;2022-11-24T03:17:40;87571.00;;;22.70
74536;BMP180;63013;51.104;-115.370;2022-11-24T03:20:08;87578.00;;;22.70
74536;BMP180;63013;51.104;-115.370;2022-11-24T03:22:36;87573.20;;;22.70
74536;BMP180;63013;51.104;-115.370;2022-11-24T03:25:04;87570.60;;;22.70
74536;BMP180;63013;51.104;-115.370;2022-11-24T03:27:33;87565.00;;;22.70
74536;BMP180;63013;51.104;-115.370;2022-11-24T03:30:00;87560.40;;;22.66
74536;BMP180;63013;51.104;-115.370;2022-11-24T03:32:26;87555.60;;;22.60
74536;BMP180;63013;51.104;-115.370;2022-11-24T03:34:54;87559.20;;;22.60
74536;BMP180;63013;51.104;-115.370;2022-11-24T03:37:21;87557.20;;;22.60
74536;BMP180;63013;51.104;-115.370;2022-11-24T03:39:48;87547.40;;;22.60
74536;BMP180;63013;51.104;-115.370;2022-11-24T03:42:15;87553.00;;;22.60
74536;BMP180;63013;51.104;-115.370;2022-11-24T03:44:42;87545.00;;;22.60
74536;BMP180;63013;51.104;-115.370;2022-11-24T03:47:11;87553.00;;;22.60
74536;BMP180;63013;51.104;-115.370;2022-11-24T03:49:38;87540.40;;;22.60
74536;BMP180;63013;51.104;-115.370;2022-11-24T03:52:07;87543.20;;;22.60
74536;BMP180;63013;51.104;-115.370;2022-11-24T03:54:34;87542.00;;;22.52
74536;BMP180;63013;51.104;-115.370;2022-11-24T03:57:01;87545.20;;;22.52
74536;BMP180;63013;51.104;-115.370;2022-11-24T03:59:28;87536.80;;;22.50
74536;BMP180;63013;51.104;-115.370;2022-11-24T04:01:55;87539.40;;;22.50
74536;BMP180;63013;51.104;-115.370;2022-11-24T04:04:22;87537.80;;;22.50
74536;BMP180;63013;51.104;-115.370;2022-11-24T04:06:49;87537.80;;;22.50
74536;BMP180;63013;51.104;-115.370;2022-11-24T04:09:16;87532.00;;;22.50
74536;BMP180;63013;51.104;-115.370;2022-11-24T04:11:43;87534.60;;;22.50
74536;BMP180;63013;51.104;-115.370;2022-11-24T04:14:28;87520.60;;;22.50
74536;BMP180;63013;51.104;-115.370;2022-11-24T04:16:55;87528.80;;;22.50
74536;BMP180;63013;51.104;-115.370;2022-11-24T04:19:23;87518.20;;;22.50
74536;BMP180;63013;51.104;-115.370;2022-11-24T04:21:50;87508.80;;;22.50
74536;BMP180;63013;51.104;-115.370;2022-11-24T04:24:17;87499.60;;;22.40
74536;BMP180;63013;51.104;-115.370;2022-11-24T04:26:44;87496.40;;;22.40
74536;BMP180;63013;51.104;-115.370;2022-11-24T04:29:11;87496.20;;;22.40
74536;BMP180;63013;51.104;-115.370;2022-11-24T04:31:39;87496.60;;;22.40
74536;BMP180;63013;51.104;-115.370;2022-11-24T04:34:06;87499.20;;;22.40
74536;BMP180;63013;51.104;-115.370;2022-11-24T04:36:33;87504.60;;;22.40
74536;BMP180;63013;51.104;-115.370;2022-11-24T04:39:00;87510.20;;;22.38
74536;BMP180;63013;51.104;-115.370;2022-11-24T04:41:27;87493.40;;;22.34
74536;BMP180;63013;51.104;-115.370;2022-11-24T04:43:54;87504.60;;;22.30
74536;BMP180;63013;51.104;-115.370;2022-11-24T04:46:21;87489.40;;;22.30
74536;BMP180;63013;51.104;-115.370;2022-11-24T04:48:48;87490.80;;;22.30
74536;BMP180;63013;51.104;-115.370;2022-11-24T04:51:15;87487.60;;;22.30
74536;BMP180;63013;51.104;-115.370;2022-11-24T04:53:42;87478.60;;;22.30
74536;BMP180;63013;51.104;-115.370;2022-11-24T04:56:09;87489.60;;;22.30
74536;BMP180;63013;51.104;-115.370;2022-11-24T04:58:36;87484.60;;;22.30
74536;BMP180;63013;51.104;-115.370;2022-11-24T05:01:07;87480.40;;;22.30
74536;BMP180;63013;51.104;-115.370;2022-11-24T05:03:36;87479.40;;;22.22
74536;BMP180;63013;51.104;-115.370;2022-11-24T05:06:03;87474.20;;;22.20
74536;BMP180;63013;51.104;-115.370;2022-11-24T05:08:30;87464.00;;;22.20
74536;BMP180;63013;51.104;-115.370;2022-11-24T05:11:03;87460.40;;;22.20
74536;BMP180;63013;51.104;-115.370;2022-11-24T05:13:30;87457.40;;;22.20
74536;BMP180;63013;51.104;-115.370;2022-11-24T05:15:58;87441.40;;;22.20
74536;BMP180;63013;51.104;-115.370;2022-11-24T05:18:25;87442.20;;;22.20
74536;BMP180;63013;51.104;-115.370;2022-11-24T05:20:52;87449.80;;;22.20
74536;BMP180;63013;51.104;-115.370;2022-11-24T05:23:19;87433.80;;;22.14
74536;BMP180;63013;51.104;-115.370;2022-11-24T05:25:46;87448.60;;;22.10
74536;BMP180;63013;51.104;-115.370;2022-11-24T05:28:13;87448.60;;;22.10
74536;BMP180;63013;51.104;-115.370;2022-11-24T05:30:41;87439.60;;;22.10
74536;BMP180;63013;51.104;-115.370;2022-11-24T05:33:13;87436.00;;;22.10
74536;BMP180;63013;51.104;-115.370;2022-11-24T05:35:49;87438.40;;;22.10
74536;BMP180;63013;51.104;-115.370;2022-11-24T05:38:17;87436.00;;;22.10
74536;BMP180;63013;51.104;-115.370;2022-11-24T05:40:44;87443.20;;;22.02
74536;BMP180;63013;51.104;-115.370;2022-11-24T05:43:12;87435.40;;;22.00
74536;BMP180;63013;51.104;-115.370;2022-11-24T05:45:40;87434.80;;;22.00
74536;BMP180;63013;51.104;-115.370;2022-11-24T05:48:11;87449.20;;;22.00
74536;BMP180;63013;51.104;-115.370;2022-11-24T05:50:39;87455.40;;;22.00
74536;BMP180;63013;51.104;-115.370;2022-11-24T05:53:09;87468.40;;;22.00
74536;BMP180;63013;51.104;-115.370;2022-11-24T05:55:38;87464.80;;;22.00
74536;BMP180;63013;51.104;-115.370;2022-11-24T05:58:07;87461.40;;;22.00
74536;BMP180;63013;51.104;-115.370;2022-11-24T06:00:35;87478.20;;;21.94
74536;BMP180;63013;51.104;-115.370;2022-11-24T06:03:03;87458.40;;;21.90
74536;BMP180;63013;51.104;-115.370;2022-11-24T06:05:30;87467.40;;;21.90
74536;BMP180;63013;51.104;-115.370;2022-11-24T06:07:59;87472.80;;;21.90
74536;BMP180;63013;51.104;-115.370;2022-11-24T06:10:26;87471.40;;;21.90
74536;BMP180;63013;51.104;-115.370;2022-11-24T06:12:53;87471.00;;;21.90
74536;BMP180;63013;51.104;-115.370;2022-11-24T06:15:21;87469.40;;;21.90
74536;BMP180;63013;51.104;-115.370;2022-11-24T06:17:55;87462.00;;;21.90
74536;BMP180;63013;51.104;-115.370;2022-11-24T06:20:23;87464.20;;;21.90
74536;BMP180;63013;51.104;-115.370;2022-11-24T06:22:51;87455.00;;;21.80
74536;BMP180;63013;51.104;-115.370;2022-11-24T06:25:18;87457.00;;;21.80
74536;BMP180;63013;51.104;-115.370;2022-11-24T06:27:45;87460.00;;;21.80
74536;BMP180;63013;51.104;-115.370;2022-11-24T06:30:13;87470.20;;;21.80
74536;BMP180;63013;51.104;-115.370;2022-11-24T06:32:40;87479.20;;;21.80
74536;BMP180;63013;51.104;-115.370;2022-11-24T06:35:12;87495.80;;;21.80
74536;BMP180;63013;51.104;-115.370;2022-11-24T06:37:40;87478.60;;;21.78
74536;BMP180;63013;51.104;-115.370;2022-11-24T06:40:07;87479.20;;;21.74
74536;BMP180;63013;51.104;-115.370;2022-11-24T06:42:36;87462.80;;;21.70
74536;BMP180;63013;51.104;-115.370;2022-11-24T06:45:04;87470.20;;;21.70
74536;BMP180;63013;51.104;-115.370;2022-11-24T06:47:31;87478.80;;;21.70
74536;BMP180;63013;51.104;-115.370;2022-11-24T06:49:58;87477.00;;;21.70
74536;BMP180;63013;51.104;-115.370;2022-11-24T06:52:25;87477.40;;;21.70
74536;BMP180;63013;51.104;-115.370;2022-11-24T06:54:53;87473.60;;;21.70
74536;BMP180;63013;51.104;-115.370;2022-11-24T06:57:20;87467.80;;;21.70
74536;BMP180;63013;51.104;-115.370;2022-11-24T06:59:47;87482.00;;;21.70
74536;BMP180;63013;51.104;-115.370;2022-11-24T07:02:14;87467.40;;;21.70
74536;BMP180;63013;51.104;-115.370;2022-11-24T07:04:41;87471.00;;;21.68
74536;BMP180;63013;51.104;-115.370;2022-11-24T07:07:08;87454.60;;;21.62
74536;BMP180;63013;51.104;-115.370;2022-11-24T07:09:35;87448.40;;;21.60
74536;BMP180;63013;51.104;-115.370;2022-11-24T07:12:02;87438.00;;;21.60
74536;BMP180;63013;51.104;-115.370;2022-11-24T07:14:31;87441.80;;;21.60
74536;BMP180;63013;51.104;-115.370;2022-11-24T07:16:58;87445.60;;;21.60
74536;BMP180;63013;51.104;-115.370;2022-11-24T07:19:26;87429.00;;;21.60
74536;BMP180;63013;51.104;-115.370;2022-11-24T07:21:53;87439.20;;;21.60
74536;BMP180;63013;51.104;-115.370;2022-11-24T07:24:20;87433.80;;;21.60
74536;BMP180;63013;51.104;-115.370;2022-11-24T07:26:47;87421.60;;;21.52
74536;BMP180;63013;51.104;-115.370;2022-11-24T07:29:14;87405.40;;;21.50
74536;BMP180;63013;51.104;-115.370;2022-11-24T07:31:41;87396.80;;;21.50
74536;BMP180;63013;51.104;-115.370;2022-11-24T07:34:08;87391.40;;;21.50
74536;BMP180;63013;51.104;-115.370;2022-11-24T07:36:35;87382.80;;;21.50
74536;BMP180;63013;51.104;-115.370;2022-11-24T07:39:06;87379.80;;;21.50
74536;BMP180;63013;51.104;-115.370;2022-11-24T07:41:33;87384.20;;;21.50
74536;BMP180;63013;51.104;-115.370;2022-11-24T07:44:00;87386.20;;;21.48
74536;BMP180;63013;51.104;-115.370;2022-11-24T07:46:27;87384.80;;;21.46
74536;BMP180;63013;51.104;-115.370;2022-11-24T07:48:54;87396.40;;;21.42
74536;BMP180;63013;51.104;-115.370;2022-11-24T07:51:21;87392.60;;;21.42
74536;BMP180;63013;51.104;-115.370;2022-11-24T07:53:48;87394.20;;;21.40
74536;BMP180;63013;51.104;-115.370;2022-11-24T07:56:15;87392.80;;;21.40
74536;BMP180;63013;51.104;-115.370;2022-11-24T07:58:42;87393.00;;;21.40
74536;BMP180;63013;51.104;-115.370;2022-11-24T08:01:15;87397.60;;;21.40
74536;BMP180;63013;51.104;-115.370;2022-11-24T08:03:44;87388.20;;;21.40
74536;BMP180;63013;51.104;-115.370;2022-11-24T08:06:13;87379.00;;;21.40
74536;BMP180;63013;51.104;-115.370;2022-11-24T08:08:40;87383.00;;;21.40
74536;BMP180;63013;51.104;-115.370;2022-11-24T08:11:11;87388.20;;;21.38
74536;BMP180;63013;51.104;-115.370;2022-11-24T08:13:39;87387.00;;;21.30
74536;BMP180;63013;51.104;-115.370;2022-11-24T08:16:15;87378.20;;;21.30
74536;BMP180;63013;51.104;-115.370;2022-11-24T08:18:47;87382.00;;;21.30
74536;BMP180;63013;51.104;-115.370;2022-11-24T08:21:15;87382.80;;;21.30
74536;BMP180;63013;51.104;-115.370;2022-11-24T08:23:42;87383.40;;;21.30
74536;BMP180;63013;51.104;-115.370;2022-11-24T08:26:14;87382.80;;;21.30
74536;BMP180;63013;51.104;-115.370;2022-11-24T08:28:45;87369.60;;;21.30
74536;BMP180;63013;51.104;-115.370;2022-11-24T08:31:17;87366.80;;;21.30
74536;BMP180;63013;51.104;-115.370;2022-11-24T08:33:44;87360.20;;;21.26
74536;BMP180;63013;51.104;-115.370;2022-11-24T08:36:16;87366.20;;;21.26
74536;BMP180;63013;51.104;-115.370;2022-11-24T08:38:44;87365.20;;;21.20
74536;BMP180;63013;51.104;-115.370;2022-11-24T08:41:14;87379.00;;;21.20
74536;BMP180;63013;51.104;-115.370;2022-11-24T08:43:42;87388.80;;;21.20
74536;BMP180;63013;51.104;-115.370;2022-11-24T08:46:14;87383.40;;;21.20
74536;BMP180;63013;51.104;-115.370;2022-11-24T08:48:52;87392.60;;;21.20
74536;BMP180;63013;51.104;-115.370;2022-11-24T08:51:25;87394.40;;;21.20
74536;BMP180;63013;51.104;-115.370;2022-11-24T08:53:58;87399.60;;;21.20
74536;BMP180;63013;51.104;-115.370;2022-11-24T08:56:28;87386.60;;;21.20
74536;BMP180;63013;51.104;-115.370;2022-11-24T08:58:56;87379.80;;;21.20
74536;BMP180;63013;51.104;-115.370;2022-11-24T09:01:24;87382.20;;;21.12
74536;BMP180;63013;51.104;-115.370;2022-11-24T09:03:51;87380.00;;;21.10
74536;BMP180;63013;51.104;-115.370;2022-11-24T09:06:26;87362.40;;;21.10
74536;BMP180;63013;51.104;-115.370;2022-11-24T09:08:56;87356.00;;;21.10
74536;BMP180;63013;51.104;-115.370;2022-11-24T09:11:25;87340.80;;;21.10
74536;BMP180;63013;51.104;-115.370;2022-11-24T09:13:53;87333.40;;;21.10
74536;BMP180;63013;51.104;-115.370;2022-11-24T09:16:25;87338.20;;;21.10
74536;BMP180;63013;51.104;-115.370;2022-11-24T09:19:04;87335.00;;;21.08
74536;BMP180;63013;51.104;-115.370;2022-11-24T09:21:33;87327.20;;;21.02
74536;BMP180;63013;51.104;-115.370;2022-11-24T09:24:04;87318.80;;;21.00
74536;BMP180;63013;51.104;-115.370;2022-11-24T09:26:34;87316.40;;;21.00
74536;BMP180;63013;51.104;-115.370;2022-11-24T09:29:04;87310.00;;;21.00
74536;BMP180;63013;51.104;-115.370;2022-11-24T09:31:36;87304.80;;;21.00
74536;BMP180;63013;51.104;-115.370;2022-11-24T09:34:14;87306.80;;;21.00
74536;BMP180;63013;51.104;-115.370;2022-11-24T09:36:41;87286.60;;;21.00
74536;BMP180;63013;51.104;-115.370;2022-11-24T09:39:10;87284.60;;;21.00
74536;BMP180;63013;51.104;-115.370;2022-11-24T09:42:18;87285.60;;;20.98
74536;BMP180;63013;51.104;-115.370;2022-11-24T09:45:08;87286.00;;;20.92
74536;BMP180;63013;51.104;-115.370;2022-11-24T09:50:34;87319.20;;;20.90
74536;BMP180;63013;51.104;-115.370;2022-11-24T09:55:49;87321.60;;;20.90
74536;BMP180;63013;51.104;-115.370;2022-11-24T10:01:38;87333.00;;;20.90
74536;BMP180;63013;51.104;-115.370;2022-11-24T10:04:27;87326.20;;;20.80
74536;BMP180;63013;51.104;-115.370;2022-11-24T10:07:26;87309.40;;;20.80
74536;BMP180;63013;51.104;-115.370;2022-11-24T10:10:13;87301.80;;;20.80
74536;BMP180;63013;51.104;-115.370;2022-11-24T10:13:18;87308.40;;;20.80
74536;BMP180;63013;51.104;-115.370;2022-11-24T10:28:09;87334.60;;;20.70
74536;BMP180;63013;51.104;-115.370;2022-11-24T10:30:38;87343.40;;;20.70
74536;BMP180;63013;51.104;-115.370;2022-11-24T10:33:21;87342.60;;;20.70
74536;BMP180;63013;51.104;-115.370;2022-11-24T10:36:02;87341.60;;;20.70
74536;BMP180;63013;51.104;-115.370;2022-11-24T10:38:51;87341.80;;;20.70
74536;BMP180;63013;51.104;-115.370;2022-11-24T10:41:49;87333.00;;;20.70
74536;BMP180;63013;51.104;-115.370;2022-11-24T10:44:17;87351.00;;;20.70
74536;BMP180;63013;51.104;-115.370;2022-11-24T10:46:44;87344.20;;;20.68
74536;BMP180;63013;51.104;-115.370;2022-11-24T10:49:22;87351.40;;;20.64
74536;BMP180;63013;51.104;-115.370;2022-11-24T10:54:33;87362.80;;;20.60
74536;BMP180;63013;51.104;-115.370;2022-11-24T10:57:01;87363.60;;;20.60
74536;BMP180;63013;51.104;-115.370;2022-11-24T10:59:36;87361.80;;;20.60
74536;BMP180;63013;51.104;-115.370;2022-11-24T11:02:32;87360.00;;;20.60
74536;BMP180;63013;51.104;-115.370;2022-11-24T11:08:23;87373.40;;;20.60
74536;BMP180;63013;51.104;-115.370;2022-11-24T11:11:28;87374.40;;;20.60
74536;BMP180;63013;51.104;-115.370;2022-11-24T11:13:59;87379.00;;;20.54
74536;BMP180;63013;51.104;-115.370;2022-11-24T11:16:40;87390.20;;;20.50
74536;BMP180;63013;51.104;-115.370;2022-11-24T11:19:37;87368.60;;;20.50
74536;BMP180;63013;51.104;-115.370;2022-11-24T11:24:43;87373.60;;;20.50
74536;BMP180;63013;51.104;-115.370;2022-11-24T11:27:23;87365.80;;;20.50
74536;BMP180;63013;51.104;-115.370;2022-11-24T11:29:51;87387.40;;;20.50
74536;BMP180;63013;51.104;-115.370;2022-11-24T11:32:26;87372.20;;;20.50
74536;BMP180;63013;51.104;-115.370;2022-11-24T11:34:55;87383.40;;;20.50
74536;BMP180;63013;51.104;-115.370;2022-11-24T11:37:28;87352.20;;;20.50
74536;BMP180;63013;51.104;-115.370;2022-11-24T11:39:57;87348.40;;;20.48
74536;BMP180;63013;51.104;-115.370;2022-11-24T11:45:19;87368.40;;;20.42
74536;BMP180;63013;51.104;-115.370;2022-11-24T11:48:19;87369.60;;;20.40
74536;BMP180;63013;51.104;-115.370;2022-11-24T11:50:53;87354.80;;;20.40
74536;BMP180;63013;51.104;-115.370;2022-11-24T11:53:30;87354.40;;;20.40
74536;BMP180;63013;51.104;-115.370;2022-11-24T11:56:14;87336.80;;;20.40
74536;BMP180;63013;51.104;-115.370;2022-11-24T12:03:09;87336.80;;;20.40
74536;BMP180;63013;51.104;-115.370;2022-11-24T12:05:53;87343.20;;;20.40
74536;BMP180;63013;51.104;-115.370;2022-11-24T12:08:46;87333.00;;;20.36
74536;BMP180;63013;51.104;-115.370;2022-11-24T12:20:48;87292.60;;;20.30
74536;BMP180;63013;51.104;-115.370;2022-11-24T12:23:44;87275.80;;;20.30
74536;BMP180;63013;51.104;-115.370;2022-11-24T12:26:36;87288.60;;;20.30
74536;BMP180;63013;51.104;-115.370;2022-11-24T12:29:51;87286.40;;;20.30
74536;BMP180;63013;51.104;-115.370;2022-11-24T12:35:43;87268.40;;;20.30
74536;BMP180;63013;51.104;-115.370;2022-11-24T12:44:00;87286.20;;;20.20
74536;BMP180;63013;51.104;-115.370;2022-11-24T12:47:10;87293.00;;;20.20
74536;BMP180;63013;51.104;-115.370;2022-11-24T12:55:32;87293.20;;;20.20
74536;BMP180;63013;51.104;-115.370;2022-11-24T13:06:22;87318.40;;;20.14
74536;BMP180;63013;51.104;-115.370;2022-11-24T13:08:50;87337.20;;;20.12
74536;BMP180;63013;51.104;-115.370;2022-11-24T13:13:59;87342.20;;;20.10
74536;BMP180;63013;51.104;-115.370;2022-11-24T13:16:28;87357.20;;;20.10
74536;BMP180;63013;51.104;-115.370;2022-11-24T13:19:13;87365.60;;;20.10
74536;BMP180;63013;51.104;-115.370;2022-11-24T13:24:25;87366.60;;;20.10
74536;BMP180;63013;51.104;-115.370;2022-11-24T13:29:44;87391.80;;;20.10
74536;BMP180;63013;51.104;-115.370;2022-11-24T13:39:58;87435.80;;;20.10
74536;BMP180;63013;51.104;-115.370;2022-11-24T13:42:30;87416.20;;;20.10
74536;BMP180;63013;51.104;-115.370;2022-11-24T13:45:07;87433.60;;;20.10
74536;BMP180;63013;51.104;-115.370;2022-11-24T13:47:52;87443.20;;;20.10
74536;BMP180;63013;51.104;-115.370;2022-11-24T13:51:26;87429.20;;;20.10
74536;BMP180;63013;51.104;-115.370;2022-11-24T13:53:43;87445.20;;;20.04
74536;BMP180;63013;51.104;-115.370;2022-11-24T13:59:13;87461.60;;;20.00
74536;BMP180;63013;51.104;-115.370;2022-11-24T14:01:42;87465.60;;;20.00
74536;BMP180;63013;51.104;-115.370;2022-11-24T14:04:28;87468.80;;;20.00
74536;BMP180;63013;51.104;-115.370;2022-11-24T14:07:06;87477.80;;;20.00
74536;BMP180;63013;51.104;-115.370;2022-11-24T14:09:44;87466.60;;;20.00
74536;BMP180;63013;51.104;-115.370;2022-11-24T14:12:21;87475.60;;;20.00
74536;BMP180;63013;51.104;-115.370;2022-11-24T14:14:53;87481.80;;;20.00
74536;BMP180;63013;51.104;-115.370;2022-11-24T14:17:38;87471.60;;;20.00
74536;BMP180;63013;51.104;-115.370;2022-11-24T14:20:24;87463.00;;;20.00
74536;BMP180;63013;51.104;-115.370;2022-11-24T14:22:52;87467.60;;;20.00
74536;BMP180;63013;51.104;-115.370;2022-11-24T14:25:31;87459.80;;;20.00
74536;BMP180;63013;51.104;-115.370;2022-11-24T14:28:00;87463.20;;;20.00
74536;BMP180;63013;51.104;-115.370;2022-11-24T14:30:27;87464.00;;;20.00
74536;BMP180;63013;51.104;-115.370;2022-11-24T14:32:56;87462.00;;;20.00
74536;BMP180;63013;51.104;-115.370;2022-11-24T14:35:30;87453.60;;;20.00
74536;BMP180;63013;51.104;-115.370;2022-11-24T14:38:07;87456.80;;;20.00
74536;BMP180;63013;51.104;-115.370;2022-11-24T14:43:31;87442.60;;;20.00
74536;BMP180;63013;51.104;-115.370;2022-11-24T14:46:07;87437.20;;;19.92
74536;BMP180;63013;51.104;-115.370;2022-11-24T14:48:49;87442.80;;;19.92
74536;BMP180;63013;51.104;-115.370;2022-11-24T14:51:29;87429.00;;;19.90
74536;BMP180;63013;51.104;-115.370;2022-11-24T14:54:11;87429.20;;;19.90
74536;BMP180;63013;51.104;-115.370;2022-11-24T14:56:39;87435.20;;;19.92
74536;BMP180;63013;51.104;-115.370;2022-11-24T14:59:28;87429.40;;;19.96
74536;BMP180;63013;51.104;-115.370;2022-11-24T15:01:56;87434.00;;;20.00
74536;BMP180;63013;51.104;-115.370;2022-11-24T15:04:29;87443.40;;;20.00
74536;BMP180;63013;51.104;-115.370;2022-11-24T15:07:26;87435.60;;;20.04
74536;BMP180;63013;51.104;-115.370;2022-11-24T15:09:57;87440.40;;;20.10
74536;BMP180;63013;51.104;-115.370;2022-11-24T15:12:31;87447.80;;;20.10
74536;BMP180;63013;51.104;-115.370;2022-11-24T15:15:21;87449.20;;;20.20
74536;BMP180;63013;51.104;-115.370;2022-11-24T15:17:57;87448.00;;;20.20
74536;BMP180;63013;51.104;-115.370;2022-11-24T15:20:33;87453.00;;;20.22
74536;BMP180;63013;51.104;-115.370;2022-11-24T15:23:25;87452.80;;;20.30
74536;BMP180;63013;51.104;-115.370;2022-11-24T15:28:30;87470.80;;;20.40
74536;BMP180;63013;51.104;-115.370;2022-11-24T15:31:04;87486.00;;;20.40
74536;BMP180;63013;51.104;-115.370;2022-11-24T15:33:32;87479.00;;;20.46
74536;BMP180;63013;51.104;-115.370;2022-11-24T15:35:59;87478.00;;;20.50
74536;BMP180;63013;51.104;-115.370;2022-11-24T15:38:27;87481.40;;;20.54